createdAt,value
2018-04-28T00:17:10.957Z,9.30
2018-04-28T01:14:43.262Z,5.33
2018-04-28T01:17:22.783Z,8.63
2018-04-28T01:20:06.222Z,8.37
2018-04-28T01:22:36.687Z,6.80
2018-04-28T01:25:07.236Z,8.20
2018-04-28T01:28:06.440Z,8.97
2018-04-28T01:30:58.592Z,7.57
2018-04-28T01:33:47.737Z,6.87
2018-04-28T01:36:19.490Z,10.03
2018-04-28T01:38:47.118Z,8.30
2018-04-28T01:44:19.088Z,9.33
2018-04-28T01:47:02.382Z,8.37
2018-04-28T01:49:31.533Z,8.50
2018-04-28T01:51:59.224Z,4.77
2018-04-28T01:54:27.738Z,5.47
2018-04-28T01:57:00.175Z,7.43
2018-04-28T01:59:44.654Z,6.70
2018-04-28T02:02:12.311Z,8.30
2018-04-28T02:05:06.627Z,8.00
2018-04-28T02:07:36.555Z,8.07
2018-04-28T02:10:04.187Z,5.23
2018-04-28T02:12:42.413Z,7.17
2018-04-28T02:15:19.460Z,5.97
2018-04-28T02:17:57.559Z,8.07
2018-04-28T02:20:25.979Z,4.60
2018-04-28T02:23:05.435Z,5.10
2018-04-28T02:25:39.835Z,7.20
2018-04-28T02:28:13.361Z,6.43
2018-04-28T02:33:48.242Z,6.67
2018-04-28T02:36:36.285Z,6.23
2018-04-28T02:39:11.828Z,7.43
2018-04-28T02:41:46.189Z,3.97
2018-04-28T02:44:21.842Z,8.20
2018-04-28T02:46:50.397Z,6.17
2018-04-28T02:49:40.383Z,8.00
2018-04-28T02:52:34.520Z,5.77
2018-04-28T02:55:13.918Z,4.97
2018-04-28T02:57:53.399Z,4.90
2018-04-28T03:00:30.178Z,6.33
2018-04-28T03:03:00.619Z,7.63
2018-04-28T03:05:33.940Z,5.00
2018-04-28T03:08:09.265Z,5.07
2018-04-28T03:13:28.941Z,8.07
2018-04-28T03:15:58.952Z,6.23
2018-04-28T03:18:41.502Z,6.10
2018-04-28T03:21:17.810Z,6.87
2018-04-28T03:23:47.248Z,5.33
2018-04-28T03:29:11.306Z,5.60
2018-04-28T03:31:39.838Z,8.07
2018-04-28T03:34:15.088Z,7.13
2018-04-28T03:36:51.054Z,5.73
2018-04-28T03:39:25.313Z,5.67
2018-04-28T03:41:52.955Z,5.53
2018-04-28T03:47:45.047Z,6.17
2018-04-28T03:50:19.456Z,6.97
2018-04-28T03:53:25.289Z,8.77
2018-04-28T03:59:05.000Z,6.30
2018-04-28T04:01:44.363Z,5.93
2018-04-28T04:07:20.531Z,6.97
2018-04-28T04:09:56.328Z,7.83
2018-04-28T04:12:42.666Z,4.50
2018-04-28T04:15:22.575Z,6.63
2018-04-28T04:21:38.155Z,6.67
2018-04-28T04:24:28.382Z,8.20
2018-04-28T04:27:03.636Z,5.10
2018-04-28T04:29:41.046Z,6.93
2018-04-28T04:32:13.190Z,6.63
2018-04-28T04:35:01.611Z,7.17
2018-04-28T04:37:49.780Z,6.63
2018-04-28T04:43:18.948Z,6.60
2018-04-28T04:45:52.820Z,5.97
2018-04-28T04:48:46.101Z,6.33
2018-04-28T04:51:14.594Z,6.73
2018-04-28T04:56:47.056Z,7.47
2018-04-28T04:59:47.540Z,6.57
2018-04-28T05:02:36.928Z,6.83
2018-04-28T05:05:17.300Z,8.43
2018-04-28T05:07:51.559Z,9.63
2018-04-28T05:10:48.879Z,9.53
2018-04-28T05:16:28.322Z,8.10
2018-04-28T05:25:06.868Z,8.07
2018-04-28T05:47:21.887Z,6.40
2018-04-28T05:50:08.935Z,8.17
2018-04-28T05:52:54.171Z,9.47
2018-04-28T05:55:50.391Z,10.40
2018-04-28T05:58:53.719Z,11.50
2018-04-28T06:01:33.183Z,11.37
2018-04-28T06:06:58.136Z,9.07
2018-04-28T06:09:46.347Z,7.80
2018-04-28T06:12:18.868Z,9.47
2018-04-28T06:15:03.174Z,8.17
2018-04-28T06:23:47.085Z,7.43
2018-04-28T06:26:14.733Z,9.13
2018-04-28T06:28:42.530Z,8.03
2018-04-28T06:31:16.347Z,10.33
2018-04-28T06:33:44.026Z,6.73
2018-04-28T06:39:25.569Z,11.20
2018-04-28T06:42:10.347Z,10.87
2018-04-28T06:44:55.143Z,9.77
2018-04-28T06:47:24.829Z,11.60
2018-04-28T06:50:01.926Z,10.50
2018-04-28T06:52:29.532Z,10.30
2018-04-28T06:54:57.555Z,9.17
2018-04-28T06:57:25.343Z,8.27
2018-04-28T07:03:00.148Z,12.87
2018-04-28T07:05:27.857Z,9.53
2018-04-28T07:07:56.130Z,9.33
2018-04-28T07:10:25.250Z,12.07
2018-04-28T07:12:58.377Z,8.10
2018-04-28T07:15:26.119Z,9.47
2018-04-28T07:18:08.889Z,10.47
2018-04-28T07:23:47.664Z,13.17
2018-04-28T07:26:16.162Z,12.60
2018-04-28T07:28:43.839Z,10.43
2018-04-28T07:31:11.537Z,9.60
2018-04-28T07:33:39.247Z,11.07
2018-04-28T07:36:09.808Z,14.33
2018-04-28T07:38:37.492Z,9.07
2018-04-28T07:41:05.117Z,10.80
2018-04-28T07:43:47.971Z,7.20
2018-04-28T07:46:22.179Z,9.40
2018-04-28T07:49:00.450Z,11.23
2018-04-28T07:59:52.175Z,11.53
2018-04-28T08:02:32.450Z,7.93
2018-04-28T08:05:00.120Z,14.53
2018-04-28T08:07:28.542Z,10.90
2018-04-28T08:10:12.816Z,9.03
2018-04-28T08:12:40.433Z,8.80
2018-04-28T08:18:16.495Z,8.50
2018-04-28T08:21:00.060Z,8.47
2018-04-28T08:23:44.452Z,10.53
2018-04-28T08:26:25.310Z,10.53
2018-04-28T08:50:06.236Z,12.20
2018-04-28T08:52:43.568Z,11.53
2018-04-28T08:58:04.508Z,11.90
2018-04-28T09:03:26.989Z,10.20
2018-04-28T09:08:40.147Z,10.13
2018-04-28T09:11:08.609Z,10.33
2018-04-28T09:13:43.033Z,8.13
2018-04-28T09:16:14.448Z,12.00
2018-04-28T09:21:49.878Z,12.13
2018-04-28T09:24:20.180Z,11.43
2018-04-28T09:26:50.100Z,12.53
2018-04-28T09:29:17.731Z,13.07
2018-04-28T09:31:45.449Z,14.27
2018-04-28T09:34:13.091Z,9.73
2018-04-28T09:36:40.764Z,12.27
2018-04-28T09:39:08.434Z,11.37
2018-04-28T09:41:39.950Z,11.67
2018-04-28T09:44:12.253Z,9.23
2018-04-28T09:46:42.218Z,11.93
2018-04-28T09:49:09.894Z,12.33
2018-04-28T09:51:37.574Z,9.90
2018-04-28T09:54:15.521Z,12.40
2018-04-28T09:56:43.176Z,9.63
2018-04-28T09:59:18.166Z,8.47
2018-04-28T10:01:46.249Z,10.03
2018-04-28T10:04:19.838Z,9.33
2018-04-28T10:06:50.620Z,9.17
2018-04-28T10:09:27.508Z,9.10
2018-04-28T10:11:57.564Z,9.93
2018-04-28T10:17:33.560Z,8.93
2018-04-28T10:20:01.370Z,9.07
2018-04-28T10:22:29.062Z,10.67
2018-04-28T10:24:56.688Z,8.80
2018-04-28T10:27:26.116Z,9.23
2018-04-28T10:30:01.887Z,9.23
2018-04-28T10:32:38.849Z,9.63
2018-04-28T10:35:06.736Z,11.57
2018-04-28T10:37:43.483Z,9.77
2018-04-28T10:40:19.687Z,10.83
2018-04-28T10:42:58.312Z,9.70
2018-04-28T10:45:38.812Z,9.80
2018-04-28T10:48:17.046Z,9.43
2018-04-28T10:50:47.147Z,10.23
2018-04-28T10:53:26.983Z,9.37
2018-04-28T10:56:05.290Z,9.90
2018-04-28T10:58:43.352Z,11.37
2018-04-28T11:01:17.897Z,9.07
2018-04-28T11:03:54.126Z,8.63
2018-04-28T11:06:21.850Z,9.37
2018-04-28T11:08:50.272Z,7.87
2018-04-28T11:11:17.951Z,7.23
2018-04-28T11:13:46.340Z,11.50
2018-04-28T11:16:19.793Z,7.17
2018-04-28T11:18:59.927Z,7.97
2018-04-28T11:21:33.647Z,7.17
2018-04-28T11:26:47.151Z,9.40
2018-04-28T11:35:11.476Z,11.90
2018-04-28T11:37:39.131Z,12.43
2018-04-28T11:43:07.468Z,13.87
2018-04-28T11:45:42.389Z,13.90
2018-04-28T11:48:10.061Z,13.43
2018-04-28T11:50:37.686Z,13.90
2018-04-28T11:53:17.191Z,13.33
2018-04-28T11:55:44.929Z,14.13
2018-04-28T11:58:27.478Z,13.70
2018-04-28T12:03:30.547Z,14.13
2018-04-28T12:06:10.577Z,15.87
2018-04-28T12:11:41.146Z,15.33
2018-04-28T12:17:21.616Z,12.97
2018-04-28T12:19:49.269Z,13.33
2018-04-28T12:22:16.868Z,15.77
2018-04-28T12:24:44.541Z,15.37
2018-04-28T12:27:12.798Z,13.93
2018-04-28T12:29:40.512Z,13.43
2018-04-28T12:32:08.132Z,14.47
2018-04-28T12:34:35.771Z,16.47
2018-04-28T12:37:03.572Z,13.90
2018-04-28T12:39:31.251Z,15.03
2018-04-28T12:42:02.621Z,13.90
2018-04-28T12:44:30.269Z,15.13
2018-04-28T12:46:57.986Z,13.67
2018-04-28T12:49:25.629Z,14.77
2018-04-28T12:52:07.802Z,16.63
2018-04-28T12:54:35.557Z,15.97
2018-04-28T12:57:03.245Z,15.50
2018-04-28T12:59:30.867Z,16.77
2018-04-28T13:01:58.478Z,16.97
2018-04-28T13:04:38.320Z,19.03
2018-04-28T13:07:06.555Z,17.17
2018-04-28T13:09:38.217Z,16.77
2018-04-28T13:12:20.106Z,15.13
2018-04-28T13:14:58.312Z,17.80
2018-04-28T13:23:29.399Z,16.60
2018-04-28T13:28:54.854Z,16.27
2018-04-28T13:31:29.027Z,16.67
2018-04-28T13:37:08.662Z,15.97
2018-04-28T14:06:35.641Z,14.47
2018-04-28T14:09:05.469Z,13.63
2018-04-28T14:14:39.212Z,14.63
2018-04-28T14:30:43.759Z,11.13
2018-04-28T14:33:11.361Z,9.73
2018-04-28T14:35:39.019Z,9.90
2018-04-28T14:38:06.639Z,10.57
2018-04-28T14:40:34.247Z,9.37
2018-04-28T14:43:12.707Z,9.53
2018-04-28T14:45:41.153Z,10.97
2018-04-28T14:48:09.472Z,10.50
2018-04-28T14:50:37.106Z,9.60
2018-04-28T14:53:06.885Z,10.43
2018-04-28T14:55:34.508Z,10.07
2018-04-28T14:58:02.160Z,9.80
2018-04-28T15:00:29.778Z,10.10
2018-04-28T15:02:57.362Z,10.60
2018-04-28T15:05:25.739Z,9.57
2018-04-28T15:07:54.185Z,16.13
2018-04-28T15:10:28.776Z,17.57
2018-04-28T15:12:56.383Z,18.33
2018-04-28T15:15:25.179Z,20.17
2018-04-28T15:17:53.603Z,18.67
2018-04-28T15:20:21.990Z,19.83
2018-04-28T15:22:49.639Z,17.83
2018-04-28T15:25:18.062Z,18.03
2018-04-28T15:27:48.547Z,19.83
2018-04-28T15:32:58.527Z,18.87
2018-04-28T15:35:26.142Z,18.17
2018-04-28T15:37:55.297Z,16.23
2018-04-28T15:40:35.498Z,16.33
2018-04-28T15:43:03.935Z,16.87
2018-04-28T15:45:31.523Z,16.40
2018-04-28T15:47:59.119Z,17.40
2018-04-28T15:50:26.699Z,16.00
2018-04-28T15:52:54.311Z,17.40
2018-04-28T15:55:21.955Z,16.70
2018-04-28T15:57:49.517Z,15.73
2018-04-28T16:00:17.148Z,16.50
2018-04-28T16:02:44.729Z,16.37
2018-04-28T16:05:12.355Z,15.37
2018-04-28T16:07:39.988Z,18.07
2018-04-28T16:10:08.400Z,15.77
2018-04-28T16:12:36.954Z,15.63
2018-04-28T16:15:05.457Z,16.27
2018-04-28T16:17:33.010Z,14.10
2018-04-28T16:20:00.702Z,16.60
2018-04-28T16:22:28.400Z,17.07
2018-04-28T16:24:56.009Z,15.97
2018-04-28T16:27:23.690Z,15.87
2018-04-28T16:29:52.066Z,17.13
2018-04-28T16:32:19.685Z,17.13
2018-04-28T16:34:47.456Z,18.20
2018-04-28T16:37:15.027Z,16.87
2018-04-28T16:39:42.662Z,19.03
2018-04-28T16:42:11.073Z,17.70
2018-04-28T16:44:38.724Z,15.70
2018-04-28T16:47:06.332Z,15.37
2018-04-28T16:49:33.974Z,14.13
2018-04-28T16:52:01.604Z,15.47
2018-04-28T16:54:29.205Z,16.73
2018-04-28T16:56:56.838Z,16.70
2018-04-28T16:59:24.485Z,14.47
2018-04-28T17:01:52.868Z,14.13
2018-04-28T17:04:20.453Z,15.37
2018-04-28T17:06:48.103Z,14.13
2018-04-28T17:09:15.726Z,15.07
2018-04-28T17:11:44.083Z,14.83
2018-04-28T17:14:11.722Z,13.00
2018-04-28T17:16:40.359Z,12.83
2018-04-28T17:19:08.117Z,13.63
2018-04-28T17:21:36.349Z,13.93
2018-04-28T17:24:03.952Z,14.70
2018-04-28T17:26:31.592Z,14.03
2018-04-28T17:28:59.186Z,14.37
2018-04-28T17:31:27.607Z,13.97
2018-04-28T17:33:55.194Z,13.37
2018-04-28T17:36:22.836Z,13.73
2018-04-28T17:38:50.434Z,13.43
2018-04-28T17:41:18.014Z,13.70
2018-04-28T17:43:46.397Z,13.10
2018-04-28T17:46:14.799Z,13.13
2018-04-28T17:48:42.412Z,12.87
2018-04-28T17:51:10.057Z,11.97
2018-04-28T17:53:40.311Z,14.23
2018-04-28T17:56:08.722Z,17.43
2018-04-28T17:58:36.426Z,13.47
2018-04-28T18:01:03.987Z,14.77
2018-04-28T18:03:53.400Z,16.73
2018-04-28T18:06:21.014Z,14.60
2018-04-28T18:08:48.655Z,15.23
2018-04-28T18:11:16.246Z,14.60
2018-04-28T18:13:43.885Z,14.87
2018-04-28T18:16:11.546Z,14.47
2018-04-28T18:18:39.164Z,13.00
2018-04-28T18:21:06.788Z,12.20
2018-04-28T18:23:34.450Z,12.40
2018-04-28T18:26:02.081Z,13.07
2018-04-28T18:28:29.710Z,10.80
2018-04-28T18:30:58.091Z,14.90
2018-04-28T18:33:26.469Z,14.07
2018-04-28T18:35:54.812Z,14.30
2018-04-28T18:38:22.468Z,12.13
2018-04-28T18:40:50.129Z,13.03
2018-04-28T18:43:17.698Z,12.47
2018-04-28T18:45:45.365Z,10.93
2018-04-28T18:48:13.841Z,14.03
2018-04-28T18:50:41.472Z,11.93
2018-04-28T18:53:09.081Z,11.97
2018-04-28T18:55:37.466Z,12.93
2018-04-28T18:58:05.889Z,12.60
2018-04-28T19:00:33.506Z,12.40
2018-04-28T19:03:01.151Z,15.23
2018-04-28T19:05:28.807Z,14.13
2018-04-28T19:07:56.429Z,17.13
2018-04-28T19:10:24.619Z,15.33
2018-04-28T19:12:52.279Z,16.03
2018-04-28T19:15:19.862Z,15.10
2018-04-28T19:17:47.515Z,16.67
2018-04-28T19:20:15.149Z,15.50
2018-04-28T19:22:42.801Z,16.17
2018-04-28T19:25:10.466Z,19.67
2018-04-28T19:27:38.004Z,19.17
2018-04-28T19:30:06.366Z,20.73
2018-04-28T19:32:34.115Z,16.90
2018-04-28T19:35:01.727Z,17.37
2018-04-28T19:37:29.322Z,18.83
2018-04-28T19:39:56.951Z,18.83
2018-04-28T19:42:24.584Z,18.00
2018-04-28T19:44:52.967Z,17.90
2018-04-28T19:47:20.631Z,20.63
2018-04-28T19:49:48.195Z,18.83
2018-04-28T19:52:15.821Z,20.77
2018-04-28T19:54:44.586Z,22.80
2018-04-28T19:57:12.224Z,21.07
2018-04-28T19:59:39.853Z,20.33
2018-04-28T20:02:07.472Z,23.57
2018-04-28T20:04:35.092Z,18.60
2018-04-28T20:07:03.492Z,20.80
2018-04-28T20:09:31.142Z,22.23
2018-04-28T20:11:58.780Z,18.90
2018-04-28T20:14:26.362Z,19.37
2018-04-28T20:16:57.580Z,21.13
2018-04-28T20:19:25.171Z,24.63
2018-04-28T20:25:05.896Z,20.70
2018-04-28T20:27:33.510Z,22.17
2018-04-28T20:30:01.898Z,23.80
2018-04-28T20:32:29.512Z,22.97
2018-04-28T20:34:57.116Z,20.10
2018-04-28T20:37:25.492Z,23.10
2018-04-28T20:39:53.902Z,22.27
2018-04-28T20:42:21.486Z,21.60
2018-04-28T20:44:49.138Z,22.70
2018-04-28T20:47:16.737Z,22.67
2018-04-28T20:49:44.351Z,22.40
2018-04-28T20:52:11.930Z,31.77
2018-04-28T20:54:39.540Z,40.00
2018-04-28T20:57:07.928Z,26.13
2018-04-28T20:59:35.606Z,24.20
2018-04-28T21:02:03.181Z,24.97
2018-04-28T21:04:32.115Z,27.43
2018-04-28T21:07:00.436Z,23.60
2018-04-28T21:09:28.035Z,24.13
2018-04-28T21:11:55.609Z,26.53
2018-04-28T21:14:23.218Z,23.13
2018-04-28T21:16:50.766Z,24.87
2018-04-28T21:19:18.369Z,21.97
2018-04-28T21:21:46.397Z,24.07
2018-04-28T21:24:14.018Z,24.23
2018-04-28T21:26:48.386Z,24.97
2018-04-28T21:29:15.997Z,26.17
2018-04-28T21:31:43.569Z,23.57
2018-04-28T21:34:11.197Z,20.70
2018-04-28T21:36:38.762Z,27.00
2018-04-28T21:39:06.333Z,28.53
2018-04-28T21:41:33.909Z,34.80
2018-04-28T21:44:01.505Z,32.07
2018-04-28T21:46:29.239Z,32.47
2018-04-28T21:48:58.102Z,30.80
2018-04-28T21:51:25.685Z,29.93
2018-04-28T21:53:53.230Z,27.93
2018-04-28T21:56:20.853Z,21.83
2018-04-28T21:58:48.427Z,28.33
2018-04-28T22:01:16.042Z,24.73
2018-04-28T22:03:43.657Z,30.03
2018-04-28T22:06:11.243Z,30.50
2018-04-28T22:08:38.862Z,32.77
2018-04-28T22:11:06.414Z,28.27
2018-04-28T22:13:33.969Z,29.27
2018-04-28T22:16:01.614Z,29.67
2018-04-28T22:18:29.218Z,24.03
2018-04-28T22:20:56.832Z,21.87
2018-04-28T22:23:25.197Z,25.57
2018-04-28T22:25:53.579Z,25.40
2018-04-28T22:28:21.908Z,24.20
2018-04-28T22:30:50.247Z,28.00
2018-04-28T22:33:19.625Z,25.20
2018-04-28T22:35:47.167Z,23.63
2018-04-28T22:38:14.759Z,22.60
2018-04-28T22:40:43.122Z,28.43
2018-04-28T22:43:10.733Z,26.70
2018-04-28T22:45:38.349Z,23.63
2018-04-28T22:48:05.939Z,32.03
2018-04-28T22:50:34.248Z,28.13
2018-04-28T22:53:02.606Z,26.17
2018-04-28T22:55:31.781Z,27.87
2018-04-28T22:58:00.131Z,27.90
2018-04-28T23:00:27.747Z,30.70
2018-04-28T23:02:55.341Z,28.23
2018-04-28T23:05:22.926Z,27.47
2018-04-28T23:07:50.519Z,28.93
2018-04-28T23:10:18.259Z,25.20
2018-04-28T23:12:46.632Z,24.83
2018-04-28T23:15:14.224Z,27.27
2018-04-28T23:17:45.208Z,27.77
2018-04-28T23:20:12.783Z,27.50
2018-04-28T23:22:40.421Z,26.00
2018-04-28T23:25:07.982Z,26.73
2018-04-28T23:27:35.588Z,26.10
2018-04-28T23:30:03.971Z,29.27
2018-04-28T23:32:32.598Z,27.87
2018-04-28T23:35:00.184Z,29.63
2018-04-28T23:37:27.800Z,29.70
2018-04-28T23:39:56.677Z,28.43
2018-04-28T23:42:24.303Z,24.43
2018-04-28T23:44:51.931Z,27.33
2018-04-28T23:47:19.615Z,31.37
2018-04-28T23:49:47.239Z,26.57
2018-04-28T23:52:14.816Z,26.20
2018-04-28T23:54:42.467Z,28.40
2018-04-28T23:57:10.414Z,26.47
2018-04-28T23:59:38.107Z,28.93
